sensor_id;sensor_type;location;lat;lon;timestamp;P1;durP1;ratioP1;P2;durP2;ratioP2
5987;SDS011;3021;51.000;6.980;2023-07-13T00:01:46;4.85;;;1.95;;
5987;SDS011;3021;51.000;6.980;2023-07-13T00:04:14;2.88;;;1.40;;
5987;SDS011;3021;51.000;6.980;2023-07-13T00:06:40;5.90;;;1.50;;
5987;SDS011;3021;51.000;6.980;2023-07-13T00:09:09;3.25;;;1.30;;
5987;SDS011;3021;51.000;6.980;2023-07-13T00:11:39;4.50;;;1.65;;
5987;SDS011;3021;51.000;6.980;2023-07-13T00:14:04;4.88;;;1.30;;
5987;SDS011;3021;51.000;6.980;2023-07-13T00:16:30;4.35;;;1.50;;
5987;SDS011;3021;51.000;6.980;2023-07-13T00:18:55;2.55;;;1.30;;
5987;SDS011;3021;51.000;6.980;2023-07-13T00:21:20;4.38;;;1.50;;
5987;SDS011;3021;51.000;6.980;2023-07-13T00:23:46;3.97;;;1.33;;
5987;SDS011;3021;51.000;6.980;2023-07-13T00:26:11;9.07;;;1.83;;
5987;SDS011;3021;51.000;6.980;2023-07-13T00:28:37;7.50;;;1.80;;
5987;SDS011;3021;51.000;6.980;2023-07-13T00:31:03;3.30;;;1.63;;
5987;SDS011;3021;51.000;6.980;2023-07-13T00:33:29;4.20;;;1.50;;
5987;SDS011;3021;51.000;6.980;2023-07-13T00:35:54;3.38;;;1.45;;
5987;SDS011;3021;51.000;6.980;2023-07-13T00:38:21;5.57;;;1.63;;
5987;SDS011;3021;51.000;6.980;2023-07-13T00:40:47;5.60;;;1.25;;
5987;SDS011;3021;51.000;6.980;2023-07-13T00:43:14;3.97;;;1.50;;
5987;SDS011;3021;51.000;6.980;2023-07-13T00:48:07;3.77;;;1.27;;
5987;SDS011;3021;51.000;6.980;2023-07-13T00:50:32;3.55;;;1.13;;
5987;SDS011;3021;51.000;6.980;2023-07-13T00:52:58;5.28;;;1.67;;
5987;SDS011;3021;51.000;6.980;2023-07-13T00:55:23;4.82;;;1.50;;
5987;SDS011;3021;51.000;6.980;2023-07-13T00:57:49;4.57;;;1.40;;
5987;SDS011;3021;51.000;6.980;2023-07-13T01:00:14;10.98;;;1.60;;
5987;SDS011;3021;51.000;6.980;2023-07-13T01:02:42;4.45;;;1.90;;
5987;SDS011;3021;51.000;6.980;2023-07-13T01:05:12;3.65;;;1.60;;
5987;SDS011;3021;51.000;6.980;2023-07-13T01:07:39;5.63;;;1.60;;
5987;SDS011;3021;51.000;6.980;2023-07-13T01:10:07;6.28;;;1.25;;
5987;SDS011;3021;51.000;6.980;2023-07-13T01:12:33;5.40;;;1.40;;
5987;SDS011;3021;51.000;6.980;2023-07-13T01:14:59;8.38;;;1.50;;
5987;SDS011;3021;51.000;6.980;2023-07-13T01:17:26;4.78;;;1.58;;
5987;SDS011;3021;51.000;6.980;2023-07-13T01:19:53;5.95;;;1.33;;
5987;SDS011;3021;51.000;6.980;2023-07-13T01:22:18;6.72;;;1.40;;
5987;SDS011;3021;51.000;6.980;2023-07-13T01:24:46;3.28;;;1.33;;
5987;SDS011;3021;51.000;6.980;2023-07-13T01:27:14;6.00;;;1.35;;
5987;SDS011;3021;51.000;6.980;2023-07-13T01:29:41;4.45;;;1.30;;
5987;SDS011;3021;51.000;6.980;2023-07-13T01:32:13;6.20;;;1.42;;
5987;SDS011;3021;51.000;6.980;2023-07-13T01:34:40;5.65;;;1.75;;
5987;SDS011;3021;51.000;6.980;2023-07-13T01:37:09;6.78;;;1.50;;
5987;SDS011;3021;51.000;6.980;2023-07-13T01:39:36;8.02;;;1.33;;
5987;SDS011;3021;51.000;6.980;2023-07-13T01:42:02;5.97;;;1.30;;
5987;SDS011;3021;51.000;6.980;2023-07-13T01:44:27;3.85;;;1.50;;
5987;SDS011;3021;51.000;6.980;2023-07-13T01:46:53;5.57;;;1.80;;
5987;SDS011;3021;51.000;6.980;2023-07-13T01:49:18;4.45;;;1.33;;
5987;SDS011;3021;51.000;6.980;2023-07-13T01:51:44;2.60;;;1.20;;
5987;SDS011;3021;51.000;6.980;2023-07-13T01:54:09;3.28;;;1.48;;
5987;SDS011;3021;51.000;6.980;2023-07-13T01:56:34;4.35;;;1.70;;
5987;SDS011;3021;51.000;6.980;2023-07-13T01:59:00;7.47;;;1.50;;
5987;SDS011;3021;51.000;6.980;2023-07-13T02:01:25;2.50;;;1.30;;
5987;SDS011;3021;51.000;6.980;2023-07-13T02:03:50;4.82;;;1.30;;
5987;SDS011;3021;51.000;6.980;2023-07-13T02:06:16;6.97;;;1.80;;
5987;SDS011;3021;51.000;6.980;2023-07-13T02:08:42;4.88;;;1.45;;
5987;SDS011;3021;51.000;6.980;2023-07-13T02:11:07;6.45;;;1.67;;
5987;SDS011;3021;51.000;6.980;2023-07-13T02:13:33;9.52;;;1.90;;
5987;SDS011;3021;51.000;6.980;2023-07-13T02:15:58;4.55;;;1.30;;
5987;SDS011;3021;51.000;6.980;2023-07-13T02:18:23;5.85;;;1.48;;
5987;SDS011;3021;51.000;6.980;2023-07-13T02:20:49;7.25;;;1.67;;
5987;SDS011;3021;51.000;6.980;2023-07-13T02:23:14;5.82;;;1.77;;
5987;SDS011;3021;51.000;6.980;2023-07-13T02:25:40;8.13;;;1.58;;
5987;SDS011;3021;51.000;6.980;2023-07-13T02:28:06;5.35;;;1.48;;
5987;SDS011;3021;51.000;6.980;2023-07-13T02:30:31;6.18;;;1.50;;
5987;SDS011;3021;51.000;6.980;2023-07-13T02:32:57;6.63;;;1.90;;
5987;SDS011;3021;51.000;6.980;2023-07-13T02:35:22;5.20;;;1.52;;
5987;SDS011;3021;51.000;6.980;2023-07-13T02:37:48;7.43;;;1.70;;
5987;SDS011;3021;51.000;6.980;2023-07-13T02:40:14;5.63;;;1.77;;
5987;SDS011;3021;51.000;6.980;2023-07-13T02:42:39;4.43;;;1.52;;
5987;SDS011;3021;51.000;6.980;2023-07-13T02:45:05;3.60;;;1.33;;
5987;SDS011;3021;51.000;6.980;2023-07-13T02:47:32;3.95;;;1.38;;
5987;SDS011;3021;51.000;6.980;2023-07-13T02:49:58;1.90;;;1.20;;
5987;SDS011;3021;51.000;6.980;2023-07-13T02:52:24;2.85;;;1.20;;
5987;SDS011;3021;51.000;6.980;2023-07-13T02:54:49;5.68;;;1.58;;
5987;SDS011;3021;51.000;6.980;2023-07-13T02:57:14;3.70;;;1.50;;
5987;SDS011;3021;51.000;6.980;2023-07-13T02:59:40;5.78;;;1.75;;
5987;SDS011;3021;51.000;6.980;2023-07-13T03:02:05;4.82;;;1.65;;
5987;SDS011;3021;51.000;6.980;2023-07-13T03:04:30;6.68;;;1.67;;
5987;SDS011;3021;51.000;6.980;2023-07-13T03:06:56;3.85;;;1.55;;
5987;SDS011;3021;51.000;6.980;2023-07-13T03:09:23;6.53;;;1.45;;
5987;SDS011;3021;51.000;6.980;2023-07-13T03:11:49;4.38;;;1.70;;
5987;SDS011;3021;51.000;6.980;2023-07-13T03:14:14;6.43;;;1.75;;
5987;SDS011;3021;51.000;6.980;2023-07-13T03:16:39;2.78;;;1.50;;
5987;SDS011;3021;51.000;6.980;2023-07-13T03:19:05;5.93;;;2.05;;
5987;SDS011;3021;51.000;6.980;2023-07-13T03:21:30;6.13;;;1.70;;
5987;SDS011;3021;51.000;6.980;2023-07-13T03:23:56;2.83;;;1.45;;
5987;SDS011;3021;51.000;6.980;2023-07-13T03:26:21;4.63;;;1.70;;
5987;SDS011;3021;51.000;6.980;2023-07-13T03:28:47;4.93;;;1.70;;
5987;SDS011;3021;51.000;6.980;2023-07-13T03:31:14;7.55;;;1.73;;
5987;SDS011;3021;51.000;6.980;2023-07-13T03:33:41;4.50;;;2.13;;
5987;SDS011;3021;51.000;6.980;2023-07-13T03:36:09;6.32;;;2.10;;
5987;SDS011;3021;51.000;6.980;2023-07-13T03:38:38;6.30;;;2.15;;
5987;SDS011;3021;51.000;6.980;2023-07-13T03:41:03;8.23;;;2.20;;
5987;SDS011;3021;51.000;6.980;2023-07-13T03:43:29;7.35;;;1.50;;
5987;SDS011;3021;51.000;6.980;2023-07-13T03:45:54;3.72;;;1.52;;
5987;SDS011;3021;51.000;6.980;2023-07-13T03:48:20;4.75;;;1.67;;
5987;SDS011;3021;51.000;6.980;2023-07-13T03:50:46;6.22;;;1.70;;
5987;SDS011;3021;51.000;6.980;2023-07-13T03:53:12;4.82;;;1.83;;
5987;SDS011;3021;51.000;6.980;2023-07-13T03:55:37;7.38;;;2.15;;
5987;SDS011;3021;51.000;6.980;2023-07-13T04:00:53;7.40;;;1.90;;
5987;SDS011;3021;51.000;6.980;2023-07-13T04:03:19;4.63;;;1.42;;
5987;SDS011;3021;51.000;6.980;2023-07-13T04:05:45;3.95;;;1.48;;
5987;SDS011;3021;51.000;6.980;2023-07-13T04:08:11;8.90;;;1.63;;
5987;SDS011;3021;51.000;6.980;2023-07-13T04:10:36;6.57;;;1.80;;
5987;SDS011;3021;51.000;6.980;2023-07-13T04:13:01;5.07;;;1.73;;
5987;SDS011;3021;51.000;6.980;2023-07-13T04:15:29;5.22;;;1.65;;
5987;SDS011;3021;51.000;6.980;2023-07-13T04:17:55;2.72;;;1.40;;
5987;SDS011;3021;51.000;6.980;2023-07-13T04:20:21;5.35;;;1.48;;
5987;SDS011;3021;51.000;6.980;2023-07-13T04:22:47;2.88;;;1.70;;
5987;SDS011;3021;51.000;6.980;2023-07-13T04:25:12;8.13;;;1.85;;
5987;SDS011;3021;51.000;6.980;2023-07-13T04:27:37;4.85;;;1.60;;
5987;SDS011;3021;51.000;6.980;2023-07-13T04:30:04;3.53;;;1.63;;
5987;SDS011;3021;51.000;6.980;2023-07-13T04:32:30;7.25;;;1.90;;
5987;SDS011;3021;51.000;6.980;2023-07-13T04:34:57;9.32;;;1.80;;
5987;SDS011;3021;51.000;6.980;2023-07-13T04:37:24;6.00;;;1.50;;
5987;SDS011;3021;51.000;6.980;2023-07-13T04:39:53;4.72;;;1.83;;
5987;SDS011;3021;51.000;6.980;2023-07-13T04:42:19;8.48;;;1.88;;
5987;SDS011;3021;51.000;6.980;2023-07-13T04:44:48;9.13;;;2.03;;
5987;SDS011;3021;51.000;6.980;2023-07-13T04:47:14;7.25;;;1.88;;
5987;SDS011;3021;51.000;6.980;2023-07-13T04:49:39;6.25;;;2.03;;
5987;SDS011;3021;51.000;6.980;2023-07-13T04:52:05;5.32;;;2.00;;
5987;SDS011;3021;51.000;6.980;2023-07-13T04:54:32;5.15;;;1.65;;
5987;SDS011;3021;51.000;6.980;2023-07-13T04:56:58;3.70;;;1.48;;
5987;SDS011;3021;51.000;6.980;2023-07-13T04:59:23;6.40;;;2.00;;
5987;SDS011;3021;51.000;6.980;2023-07-13T05:01:49;7.57;;;1.85;;
5987;SDS011;3021;51.000;6.980;2023-07-13T05:04:14;4.47;;;1.60;;
5987;SDS011;3021;51.000;6.980;2023-07-13T05:06:39;5.05;;;1.73;;
5987;SDS011;3021;51.000;6.980;2023-07-13T05:09:05;4.63;;;2.00;;
5987;SDS011;3021;51.000;6.980;2023-07-13T05:11:31;7.85;;;1.95;;
5987;SDS011;3021;51.000;6.980;2023-07-13T05:13:56;7.15;;;1.55;;
5987;SDS011;3021;51.000;6.980;2023-07-13T05:16:21;8.32;;;2.13;;
5987;SDS011;3021;51.000;6.980;2023-07-13T05:18:47;4.78;;;1.70;;
5987;SDS011;3021;51.000;6.980;2023-07-13T05:21:12;5.90;;;2.30;;
5987;SDS011;3021;51.000;6.980;2023-07-13T05:23:38;7.65;;;1.80;;
5987;SDS011;3021;51.000;6.980;2023-07-13T05:26:05;4.68;;;1.98;;
5987;SDS011;3021;51.000;6.980;2023-07-13T05:28:31;4.43;;;1.77;;
5987;SDS011;3021;51.000;6.980;2023-07-13T05:30:57;6.55;;;1.80;;
5987;SDS011;3021;51.000;6.980;2023-07-13T05:33:23;5.10;;;1.85;;
5987;SDS011;3021;51.000;6.980;2023-07-13T05:35:49;8.02;;;1.85;;
5987;SDS011;3021;51.000;6.980;2023-07-13T05:38:15;5.28;;;1.50;;
5987;SDS011;3021;51.000;6.980;2023-07-13T05:40:42;7.03;;;1.80;;
5987;SDS011;3021;51.000;6.980;2023-07-13T05:43:11;7.72;;;3.53;;
5987;SDS011;3021;51.000;6.980;2023-07-13T05:45:36;5.18;;;1.95;;
5987;SDS011;3021;51.000;6.980;2023-07-13T05:48:02;4.60;;;1.52;;
5987;SDS011;3021;51.000;6.980;2023-07-13T05:50:27;7.47;;;2.10;;
5987;SDS011;3021;51.000;6.980;2023-07-13T05:52:52;7.32;;;2.00;;
5987;SDS011;3021;51.000;6.980;2023-07-13T05:55:19;8.05;;;1.63;;
5987;SDS011;3021;51.000;6.980;2023-07-13T05:57:45;8.50;;;1.73;;
5987;SDS011;3021;51.000;6.980;2023-07-13T06:00:10;5.30;;;1.45;;
5987;SDS011;3021;51.000;6.980;2023-07-13T06:02:36;7.55;;;2.25;;
5987;SDS011;3021;51.000;6.980;2023-07-13T06:05:01;9.05;;;1.90;;
5987;SDS011;3021;51.000;6.980;2023-07-13T06:07:27;10.88;;;2.53;;
5987;SDS011;3021;51.000;6.980;2023-07-13T06:09:52;7.65;;;2.33;;
5987;SDS011;3021;51.000;6.980;2023-07-13T06:12:18;6.30;;;1.80;;
5987;SDS011;3021;51.000;6.980;2023-07-13T06:14:43;7.97;;;2.78;;
5987;SDS011;3021;51.000;6.980;2023-07-13T06:17:08;11.50;;;2.22;;
5987;SDS011;3021;51.000;6.980;2023-07-13T06:19:34;5.63;;;1.70;;
5987;SDS011;3021;51.000;6.980;2023-07-13T06:21:59;11.43;;;2.00;;
5987;SDS011;3021;51.000;6.980;2023-07-13T06:24:25;7.45;;;2.03;;
5987;SDS011;3021;51.000;6.980;2023-07-13T06:26:50;8.75;;;1.98;;
5987;SDS011;3021;51.000;6.980;2023-07-13T06:29:16;6.78;;;2.30;;
5987;SDS011;3021;51.000;6.980;2023-07-13T06:31:41;4.55;;;1.70;;
5987;SDS011;3021;51.000;6.980;2023-07-13T06:34:07;7.30;;;2.00;;
5987;SDS011;3021;51.000;6.980;2023-07-13T06:36:32;6.40;;;1.75;;
5987;SDS011;3021;51.000;6.980;2023-07-13T06:38:58;4.82;;;1.95;;
5987;SDS011;3021;51.000;6.980;2023-07-13T06:41:23;7.40;;;1.83;;
5987;SDS011;3021;51.000;6.980;2023-07-13T06:43:51;7.90;;;2.38;;
5987;SDS011;3021;51.000;6.980;2023-07-13T06:46:16;9.15;;;2.72;;
5987;SDS011;3021;51.000;6.980;2023-07-13T06:48:42;6.60;;;2.05;;
5987;SDS011;3021;51.000;6.980;2023-07-13T06:51:07;7.07;;;1.80;;
5987;SDS011;3021;51.000;6.980;2023-07-13T06:53:33;8.95;;;2.00;;
5987;SDS011;3021;51.000;6.980;2023-07-13T06:55:58;7.20;;;2.55;;
5987;SDS011;3021;51.000;6.980;2023-07-13T06:58:24;9.88;;;2.40;;
5987;SDS011;3021;51.000;6.980;2023-07-13T07:00:52;5.85;;;1.90;;
5987;SDS011;3021;51.000;6.980;2023-07-13T07:03:18;4.65;;;1.77;;
5987;SDS011;3021;51.000;6.980;2023-07-13T07:05:43;4.75;;;2.03;;
5987;SDS011;3021;51.000;6.980;2023-07-13T07:08:09;6.32;;;2.13;;
5987;SDS011;3021;51.000;6.980;2023-07-13T07:10:35;10.98;;;2.80;;
5987;SDS011;3021;51.000;6.980;2023-07-13T07:13:01;8.50;;;2.55;;
5987;SDS011;3021;51.000;6.980;2023-07-13T07:15:27;9.50;;;2.55;;
5987;SDS011;3021;51.000;6.980;2023-07-13T07:17:53;7.95;;;2.55;;
5987;SDS011;3021;51.000;6.980;2023-07-13T07:20:18;8.50;;;2.35;;
5987;SDS011;3021;51.000;6.980;2023-07-13T07:22:45;5.82;;;2.22;;
5987;SDS011;3021;51.000;6.980;2023-07-13T07:25:10;13.88;;;2.40;;
5987;SDS011;3021;51.000;6.980;2023-07-13T07:27:36;6.90;;;2.28;;
5987;SDS011;3021;51.000;6.980;2023-07-13T07:30:01;8.43;;;2.08;;
5987;SDS011;3021;51.000;6.980;2023-07-13T07:32:28;6.10;;;1.98;;
5987;SDS011;3021;51.000;6.980;2023-07-13T07:34:55;10.98;;;2.35;;
5987;SDS011;3021;51.000;6.980;2023-07-13T07:37:21;7.45;;;1.98;;
5987;SDS011;3021;51.000;6.980;2023-07-13T07:39:47;9.75;;;2.40;;
5987;SDS011;3021;51.000;6.980;2023-07-13T07:42:12;9.57;;;2.85;;
5987;SDS011;3021;51.000;6.980;2023-07-13T07:44:38;9.55;;;2.10;;
5987;SDS011;3021;51.000;6.980;2023-07-13T07:47:05;8.85;;;2.17;;
5987;SDS011;3021;51.000;6.980;2023-07-13T07:49:31;10.32;;;2.20;;
5987;SDS011;3021;51.000;6.980;2023-07-13T07:51:56;7.10;;;2.22;;
5987;SDS011;3021;51.000;6.980;2023-07-13T07:54:21;9.75;;;2.33;;
5987;SDS011;3021;51.000;6.980;2023-07-13T07:56:47;7.40;;;2.60;;
5987;SDS011;3021;51.000;6.980;2023-07-13T07:59:12;11.52;;;2.42;;
5987;SDS011;3021;51.000;6.980;2023-07-13T08:01:37;5.60;;;2.03;;
5987;SDS011;3021;51.000;6.980;2023-07-13T08:04:03;6.13;;;1.83;;
5987;SDS011;3021;51.000;6.980;2023-07-13T08:06:28;10.20;;;2.30;;
5987;SDS011;3021;51.000;6.980;2023-07-13T08:08:54;8.82;;;1.98;;
5987;SDS011;3021;51.000;6.980;2023-07-13T08:11:20;6.35;;;2.00;;
5987;SDS011;3021;51.000;6.980;2023-07-13T08:13:45;8.95;;;2.30;;
5987;SDS011;3021;51.000;6.980;2023-07-13T08:16:11;4.78;;;1.95;;
5987;SDS011;3021;51.000;6.980;2023-07-13T08:18:36;11.25;;;2.75;;
5987;SDS011;3021;51.000;6.980;2023-07-13T08:21:05;6.43;;;2.58;;
5987;SDS011;3021;51.000;6.980;2023-07-13T08:23:31;12.00;;;2.50;;
5987;SDS011;3021;51.000;6.980;2023-07-13T08:25:57;6.22;;;2.15;;
5987;SDS011;3021;51.000;6.980;2023-07-13T08:28:23;7.43;;;2.40;;
5987;SDS011;3021;51.000;6.980;2023-07-13T08:30:49;6.90;;;2.28;;
5987;SDS011;3021;51.000;6.980;2023-07-13T08:33:15;7.57;;;2.55;;
5987;SDS011;3021;51.000;6.980;2023-07-13T08:35:41;8.57;;;2.08;;
5987;SDS011;3021;51.000;6.980;2023-07-13T08:38:06;8.82;;;2.65;;
5987;SDS011;3021;51.000;6.980;2023-07-13T08:40:31;9.43;;;2.30;;
5987;SDS011;3021;51.000;6.980;2023-07-13T08:43:01;8.95;;;2.50;;
5987;SDS011;3021;51.000;6.980;2023-07-13T08:46:09;8.05;;;2.30;;
5987;SDS011;3021;51.000;6.980;2023-07-13T08:48:21;8.20;;;2.35;;
5987;SDS011;3021;51.000;6.980;2023-07-13T08:50:55;8.98;;;2.75;;
5987;SDS011;3021;51.000;6.980;2023-07-13T08:53:21;8.98;;;2.63;;
5987;SDS011;3021;51.000;6.980;2023-07-13T08:55:49;4.68;;;1.90;;
5987;SDS011;3021;51.000;6.980;2023-07-13T08:58:22;7.43;;;2.38;;
5987;SDS011;3021;51.000;6.980;2023-07-13T09:01:09;7.18;;;2.15;;
5987;SDS011;3021;51.000;6.980;2023-07-13T09:03:40;6.50;;;2.72;;
5987;SDS011;3021;51.000;6.980;2023-07-13T09:06:11;6.95;;;3.35;;
5987;SDS011;3021;51.000;6.980;2023-07-13T09:17:08;5.78;;;2.20;;
5987;SDS011;3021;51.000;6.980;2023-07-13T09:19:38;8.45;;;2.20;;
5987;SDS011;3021;51.000;6.980;2023-07-13T09:22:06;5.93;;;2.15;;
5987;SDS011;3021;51.000;6.980;2023-07-13T09:27:14;7.47;;;1.75;;
5987;SDS011;3021;51.000;6.980;2023-07-13T09:29:47;5.68;;;1.73;;
5987;SDS011;3021;51.000;6.980;2023-07-13T09:32:16;4.60;;;1.77;;
5987;SDS011;3021;51.000;6.980;2023-07-13T09:34:49;4.80;;;2.05;;
5987;SDS011;3021;51.000;6.980;2023-07-13T09:37:16;4.40;;;1.75;;
5987;SDS011;3021;51.000;6.980;2023-07-13T09:39:42;5.32;;;1.80;;
5987;SDS011;3021;51.000;6.980;2023-07-13T09:44:50;4.15;;;1.65;;
5987;SDS011;3021;51.000;6.980;2023-07-13T09:47:25;5.55;;;1.98;;
5987;SDS011;3021;51.000;6.980;2023-07-13T09:52:45;6.00;;;1.80;;
5987;SDS011;3021;51.000;6.980;2023-07-13T09:57:55;6.87;;;1.80;;
5987;SDS011;3021;51.000;6.980;2023-07-13T10:00:22;7.70;;;1.60;;
5987;SDS011;3021;51.000;6.980;2023-07-13T10:02:57;8.65;;;1.80;;
5987;SDS011;3021;51.000;6.980;2023-07-13T10:05:36;4.78;;;1.55;;
5987;SDS011;3021;51.000;6.980;2023-07-13T10:08:02;10.07;;;1.98;;
5987;SDS011;3021;51.000;6.980;2023-07-13T10:10:28;6.63;;;1.70;;
5987;SDS011;3021;51.000;6.980;2023-07-13T10:12:53;6.07;;;1.90;;
5987;SDS011;3021;51.000;6.980;2023-07-13T10:15:19;3.83;;;1.55;;
5987;SDS011;3021;51.000;6.980;2023-07-13T10:17:47;6.60;;;1.50;;
5987;SDS011;3021;51.000;6.980;2023-07-13T10:20:15;8.00;;;1.80;;
5987;SDS011;3021;51.000;6.980;2023-07-13T10:25:28;5.63;;;1.58;;
5987;SDS011;3021;51.000;6.980;2023-07-13T10:27:58;3.05;;;1.38;;
5987;SDS011;3021;51.000;6.980;2023-07-13T10:30:31;4.68;;;1.60;;
5987;SDS011;3021;51.000;6.980;2023-07-13T10:33:02;6.47;;;1.92;;
5987;SDS011;3021;51.000;6.980;2023-07-13T10:35:33;6.15;;;1.55;;
5987;SDS011;3021;51.000;6.980;2023-07-13T10:38:04;6.65;;;1.88;;
5987;SDS011;3021;51.000;6.980;2023-07-13T10:40:44;4.35;;;1.50;;
5987;SDS011;3021;51.000;6.980;2023-07-13T10:43:18;4.45;;;1.48;;
5987;SDS011;3021;51.000;6.980;2023-07-13T10:45:49;5.07;;;1.75;;
5987;SDS011;3021;51.000;6.980;2023-07-13T10:48:15;5.75;;;1.85;;
5987;SDS011;3021;51.000;6.980;2023-07-13T10:50:42;5.30;;;1.73;;
5987;SDS011;3021;51.000;6.980;2023-07-13T10:58:29;4.60;;;1.67;;
5987;SDS011;3021;51.000;6.980;2023-07-13T11:03:31;6.63;;;2.05;;
5987;SDS011;3021;51.000;6.980;2023-07-13T11:06:16;6.32;;;2.00;;
5987;SDS011;3021;51.000;6.980;2023-07-13T11:08:57;6.18;;;1.50;;
5987;SDS011;3021;51.000;6.980;2023-07-13T11:18:46;5.60;;;1.60;;
5987;SDS011;3021;51.000;6.980;2023-07-13T11:21:14;4.57;;;1.90;;
5987;SDS011;3021;51.000;6.980;2023-07-13T11:23:42;6.25;;;2.13;;
5987;SDS011;3021;51.000;6.980;2023-07-13T11:31:40;4.18;;;1.65;;
5987;SDS011;3021;51.000;6.980;2023-07-13T11:34:27;6.70;;;1.52;;
5987;SDS011;3021;51.000;6.980;2023-07-13T11:36:55;4.25;;;1.50;;
5987;SDS011;3021;51.000;6.980;2023-07-13T11:39:28;4.07;;;1.35;;
5987;SDS011;3021;51.000;6.980;2023-07-13T11:41:58;6.80;;;1.77;;
5987;SDS011;3021;51.000;6.980;2023-07-13T11:44:27;4.35;;;1.50;;
5987;SDS011;3021;51.000;6.980;2023-07-13T11:46:55;3.47;;;1.40;;
5987;SDS011;3021;51.000;6.980;2023-07-13T11:49:28;8.95;;;2.25;;
5987;SDS011;3021;51.000;6.980;2023-07-13T11:51:55;6.63;;;1.88;;
5987;SDS011;3021;51.000;6.980;2023-07-13T11:56:53;5.82;;;1.90;;
5987;SDS011;3021;51.000;6.980;2023-07-13T11:59:22;4.35;;;1.70;;
5987;SDS011;3021;51.000;6.980;2023-07-13T12:01:49;3.60;;;1.60;;
5987;SDS011;3021;51.000;6.980;2023-07-13T12:04:24;4.10;;;1.45;;
5987;SDS011;3021;51.000;6.980;2023-07-13T12:06:57;6.00;;;1.75;;
5987;SDS011;3021;51.000;6.980;2023-07-13T12:09:30;5.60;;;1.90;;
5987;SDS011;3021;51.000;6.980;2023-07-13T12:11:56;4.75;;;1.90;;
5987;SDS011;3021;51.000;6.980;2023-07-13T12:14:25;3.30;;;1.50;;
5987;SDS011;3021;51.000;6.980;2023-07-13T12:16:51;5.15;;;1.70;;
5987;SDS011;3021;51.000;6.980;2023-07-13T12:19:21;4.90;;;1.80;;
5987;SDS011;3021;51.000;6.980;2023-07-13T12:21:50;6.93;;;1.73;;
5987;SDS011;3021;51.000;6.980;2023-07-13T12:24:18;4.53;;;1.63;;
5987;SDS011;3021;51.000;6.980;2023-07-13T12:26:50;4.88;;;1.92;;
5987;SDS011;3021;51.000;6.980;2023-07-13T12:29:39;6.43;;;2.03;;
5987;SDS011;3021;51.000;6.980;2023-07-13T12:32:07;2.63;;;1.38;;
5987;SDS011;3021;51.000;6.980;2023-07-13T12:34:49;6.15;;;1.70;;
5987;SDS011;3021;51.000;6.980;2023-07-13T12:37:16;7.05;;;1.60;;
5987;SDS011;3021;51.000;6.980;2023-07-13T12:39:48;5.18;;;1.75;;
5987;SDS011;3021;51.000;6.980;2023-07-13T12:42:22;4.55;;;1.58;;
5987;SDS011;3021;51.000;6.980;2023-07-13T12:44:59;6.30;;;1.33;;
5987;SDS011;3021;51.000;6.980;2023-07-13T12:47:27;2.85;;;1.40;;
5987;SDS011;3021;51.000;6.980;2023-07-13T12:49:54;4.95;;;1.48;;
5987;SDS011;3021;51.000;6.980;2023-07-13T12:52:23;5.88;;;1.70;;
5987;SDS011;3021;51.000;6.980;2023-07-13T12:54:56;4.22;;;1.30;;
5987;SDS011;3021;51.000;6.980;2023-07-13T12:57:24;8.38;;;1.88;;
5987;SDS011;3021;51.000;6.980;2023-07-13T12:59:52;4.82;;;1.23;;
5987;SDS011;3021;51.000;6.980;2023-07-13T13:02:30;5.13;;;1.60;;
5987;SDS011;3021;51.000;6.980;2023-07-13T13:04:59;4.75;;;1.65;;
5987;SDS011;3021;51.000;6.980;2023-07-13T13:07:26;8.70;;;1.95;;
5987;SDS011;3021;51.000;6.980;2023-07-13T13:09:52;4.45;;;1.50;;
5987;SDS011;3021;51.000;6.980;2023-07-13T13:12:18;3.55;;;1.45;;
5987;SDS011;3021;51.000;6.980;2023-07-13T13:14:44;7.30;;;1.55;;
5987;SDS011;3021;51.000;6.980;2023-07-13T13:17:16;4.50;;;1.42;;
5987;SDS011;3021;51.000;6.980;2023-07-13T13:19:45;4.00;;;1.45;;
5987;SDS011;3021;51.000;6.980;2023-07-13T13:22:11;5.28;;;1.42;;
5987;SDS011;3021;51.000;6.980;2023-07-13T13:24:37;4.05;;;1.60;;
5987;SDS011;3021;51.000;6.980;2023-07-13T13:27:03;6.50;;;1.70;;
5987;SDS011;3021;51.000;6.980;2023-07-13T13:29:30;5.07;;;1.65;;
5987;SDS011;3021;51.000;6.980;2023-07-13T13:31:57;4.03;;;1.50;;
5987;SDS011;3021;51.000;6.980;2023-07-13T13:34:23;3.58;;;1.38;;
5987;SDS011;3021;51.000;6.980;2023-07-13T13:36:49;9.60;;;1.58;;
5987;SDS011;3021;51.000;6.980;2023-07-13T13:39:23;4.35;;;1.50;;
5987;SDS011;3021;51.000;6.980;2023-07-13T13:41:53;4.97;;;1.55;;
5987;SDS011;3021;51.000;6.980;2023-07-13T13:44:19;5.20;;;1.45;;
5987;SDS011;3021;51.000;6.980;2023-07-13T13:46:46;2.92;;;1.40;;
5987;SDS011;3021;51.000;6.980;2023-07-13T13:49:17;5.50;;;1.58;;
5987;SDS011;3021;51.000;6.980;2023-07-13T13:51:48;7.50;;;1.35;;
5987;SDS011;3021;51.000;6.980;2023-07-13T13:54:15;5.18;;;1.73;;
5987;SDS011;3021;51.000;6.980;2023-07-13T13:56:42;8.40;;;2.00;;
5987;SDS011;3021;51.000;6.980;2023-07-13T13:59:08;7.22;;;1.88;;
5987;SDS011;3021;51.000;6.980;2023-07-13T14:01:34;4.93;;;2.15;;
5987;SDS011;3021;51.000;6.980;2023-07-13T14:04:00;6.95;;;1.83;;
5987;SDS011;3021;51.000;6.980;2023-07-13T14:06:26;5.10;;;1.90;;
5987;SDS011;3021;51.000;6.980;2023-07-13T14:08:52;3.85;;;1.60;;
5987;SDS011;3021;51.000;6.980;2023-07-13T14:11:19;8.27;;;1.38;;
5987;SDS011;3021;51.000;6.980;2023-07-13T14:13:49;3.75;;;1.33;;
5987;SDS011;3021;51.000;6.980;2023-07-13T14:16:20;2.58;;;1.20;;
5987;SDS011;3021;51.000;6.980;2023-07-13T14:18:47;3.58;;;1.10;;
5987;SDS011;3021;51.000;6.980;2023-07-13T14:21:18;4.93;;;1.52;;
5987;SDS011;3021;51.000;6.980;2023-07-13T14:23:46;6.05;;;1.67;;
5987;SDS011;3021;51.000;6.980;2023-07-13T14:26:16;4.47;;;1.40;;
5987;SDS011;3021;51.000;6.980;2023-07-13T14:28:45;3.63;;;1.30;;
5987;SDS011;3021;51.000;6.980;2023-07-13T14:31:13;6.82;;;1.48;;
5987;SDS011;3021;51.000;6.980;2023-07-13T14:33:40;3.95;;;1.27;;
5987;SDS011;3021;51.000;6.980;2023-07-13T14:36:48;4.80;;;1.60;;
5987;SDS011;3021;51.000;6.980;2023-07-13T14:38:54;8.05;;;1.30;;
5987;SDS011;3021;51.000;6.980;2023-07-13T14:41:21;5.97;;;1.77;;
5987;SDS011;3021;51.000;6.980;2023-07-13T14:43:46;4.78;;;1.55;;
5987;SDS011;3021;51.000;6.980;2023-07-13T14:46:29;3.83;;;1.52;;
5987;SDS011;3021;51.000;6.980;2023-07-13T14:49:05;4.68;;;1.65;;
5987;SDS011;3021;51.000;6.980;2023-07-13T14:51:35;5.60;;;1.50;;
5987;SDS011;3021;51.000;6.980;2023-07-13T14:54:02;5.40;;;1.38;;
5987;SDS011;3021;51.000;6.980;2023-07-13T14:56:29;7.78;;;1.75;;
5987;SDS011;3021;51.000;6.980;2023-07-13T14:58:55;5.63;;;1.75;;
5987;SDS011;3021;51.000;6.980;2023-07-13T15:01:20;4.15;;;1.58;;
5987;SDS011;3021;51.000;6.980;2023-07-13T15:03:47;9.15;;;2.83;;
5987;SDS011;3021;51.000;6.980;2023-07-13T15:06:15;7.03;;;2.97;;
5987;SDS011;3021;51.000;6.980;2023-07-13T15:08:40;5.70;;;2.05;;
5987;SDS011;3021;51.000;6.980;2023-07-13T15:11:09;7.43;;;3.15;;
5987;SDS011;3021;51.000;6.980;2023-07-13T15:13:37;4.32;;;2.17;;
5987;SDS011;3021;51.000;6.980;2023-07-13T15:16:04;7.60;;;1.77;;
5987;SDS011;3021;51.000;6.980;2023-07-13T15:18:36;4.30;;;1.40;;
5987;SDS011;3021;51.000;6.980;2023-07-13T15:21:08;6.00;;;1.30;;
5987;SDS011;3021;51.000;6.980;2023-07-13T15:23:34;2.85;;;1.65;;
5987;SDS011;3021;51.000;6.980;2023-07-13T15:26:00;3.42;;;1.50;;
5987;SDS011;3021;51.000;6.980;2023-07-13T15:28:26;4.32;;;1.55;;
5987;SDS011;3021;51.000;6.980;2023-07-13T15:30:52;6.78;;;1.60;;
5987;SDS011;3021;51.000;6.980;2023-07-13T15:33:25;6.13;;;1.80;;
5987;SDS011;3021;51.000;6.980;2023-07-13T15:35:52;3.75;;;1.55;;
5987;SDS011;3021;51.000;6.980;2023-07-13T15:38:23;5.90;;;1.80;;
5987;SDS011;3021;51.000;6.980;2023-07-13T15:40:50;3.72;;;1.45;;
5987;SDS011;3021;51.000;6.980;2023-07-13T15:43:17;6.43;;;1.80;;
5987;SDS011;3021;51.000;6.980;2023-07-13T15:45:43;9.85;;;1.63;;
5987;SDS011;3021;51.000;6.980;2023-07-13T15:48:23;5.45;;;1.85;;
5987;SDS011;3021;51.000;6.980;2023-07-13T15:50:53;5.75;;;1.48;;
5987;SDS011;3021;51.000;6.980;2023-07-13T15:53:22;4.65;;;1.48;;
5987;SDS011;3021;51.000;6.980;2023-07-13T15:55:49;10.43;;;2.10;;
5987;SDS011;3021;51.000;6.980;2023-07-13T15:58:16;5.03;;;1.77;;
5987;SDS011;3021;51.000;6.980;2023-07-13T16:00:42;4.82;;;1.70;;
5987;SDS011;3021;51.000;6.980;2023-07-13T16:03:08;6.38;;;2.08;;
5987;SDS011;3021;51.000;6.980;2023-07-13T16:05:34;5.78;;;1.88;;
5987;SDS011;3021;51.000;6.980;2023-07-13T16:08:00;5.65;;;2.10;;